Last 7 Days

Williams 2 (WL2)

Hourly Data | America/Los_Angeles
as of 8/25/19 12:48 PM PDT
Date & Time Temp (°F) RH (%) Dew Pt (°F) Wind Spd (mph) Wind Dir (°) Wind Gust (mph) Latest Rain (In) Daily Rain (In) Daily Min Temp (°F) Daily Max Temp (°F)
8/25/19 - 1200 92.1 31 56.8 4.2 ESE | 122 10.1 0.00 0.00 59.1 93.6
8/25/19 - 1100 87.7 36 57.1 2.6 SE | 144 7.1 0.00 0.00 59.1 90.1
8/25/19 - 1000 81.3 44 57.1 1.4 SSW | 202 5.1 0.00 0.00 59.1 84.2
8/25/19 - 0900 74.5 54 56.6 0.5 SSW | 210 3.4 0.00 0.00 59.1 79.0
8/25/19 - 0800 62.9 72 53.5 0.4 N | 2 1.7 0.00 0.00 59.1 70.4
8/25/19 - 0700 59.5 74 51.2 0.4 N | 4 2.1 0.00 0.00 59.1 66.3
8/25/19 - 0600 60.2 72 51.3 0.4 NNE | 25 1.7 0.00 0.00 59.5 66.3
8/25/19 - 0500 61.9 70 52.0 0.4 NE | 47 2.1 0.00 0.00 60.9 66.3
8/25/19 - 0400 63.2 64 50.8 0.4 SE | 135 2.1 0.00 0.00 62.3 66.3
8/25/19 - 0300 65.1 63 52.1 0.6 ENE | 57 3.1 0.00 0.00 64.2 66.3
8/25/19 - 0200 65.6 62 52.4 0.6 ESE | 106 3.1 0.00 0.00 65.2 66.3
8/25/19 - 0100 65.8 61 52.1 0.5 ENE | 63 2.1 0.00 0.00 54.4 94.4
8/25/19 - 0000 67.3 59 52.3 0.5 ENE | 57 2.4 0.00 0.00 54.4 94.4
8/24/19 - 2300 69.5 55 52.6 0.6 N | 352 3.1 0.00 0.00 54.4 94.4
8/24/19 - 2200 73.1 48 52.4 0.6 NNE | 18 3.1 0.00 0.00 54.4 94.4
8/24/19 - 2100 79.3 38 51.5 2.0 NW | 316 6.4 0.00 0.00 54.4 94.4
8/24/19 - 2000 83.5 35 53.0 2.9 NW | 307 8.1 0.00 0.00 54.4 94.4
8/24/19 - 1900 89.2 31 54.3 2.9 WNW | 287 8.4 0.00 0.00 54.4 94.4
8/24/19 - 1800 91.2 30 55.8 3.8 WNW | 297 10.5 0.00 0.00 54.4 94.4
8/24/19 - 1700 92.6 30 56.6 5.8 NW | 312 12.5 0.00 0.00 54.4 94.4
8/24/19 - 1600 93.1 29 56.6 6.0 NNW | 327 12.1 0.00 0.00 54.4 94.4
8/24/19 - 1500 92.6 29 55.5 6.9 NNW | 342 13.5 0.00 0.00 54.4 93.6
8/24/19 - 1400 91.8 27 52.8 5.6 NNW | 338 11.8 0.00 0.00 54.4 92.8
8/24/19 - 1300 88.8 29 52.4 5.7 NNW | 333 10.8 0.00 0.00 54.4 90.6
8/24/19 - 1200 86.0 31 51.6 5.4 NNW | 328 11.8 0.00 0.00 54.4 87.5
8/24/19 - 1100 83.1 33 50.9 2.5 N | 355 9.5 0.00 0.00 54.4 85.1
8/24/19 - 1000 79.2 38 51.0 1.0 NW | 316 6.4 0.00 0.00 54.4 81.7
8/24/19 - 0900 71.8 56 55.3 0.7 SE | 126 3.1 0.00 0.00 54.4 76.4
8/24/19 - 0800 59.1 83 54.0 0.6 NW | 314 3.1 0.00 0.00 54.4 65.7
8/24/19 - 0700 54.9 85 50.5 0.4 ENE | 71 1.7 0.00 0.00 54.4 60.7
8/24/19 - 0600 55.2 84 50.5 0.4 E | 88 0.4 0.00 0.00 54.7 60.7
8/24/19 - 0500 56.1 85 51.6 0.4 NE | 34 0.4 0.00 0.00 55.7 60.7
8/24/19 - 0400 57.0 83 52.0 0.4 ENE | 58 1.4 0.00 0.00 56.2 60.7
8/24/19 - 0300 58.5 82 53.0 0.4 WNW | 290 1.7 0.00 0.00 57.7 60.7
8/24/19 - 0200 59.8 81 53.9 0.4 NE | 47 2.1 0.00 0.00 58.8 60.7
8/24/19 - 0100 61.2 79 54.7 0.4 N | 4 2.1 0.00 0.00 58.2 96.8
8/24/19 - 0000 63.2 76 55.7 0.5 SE | 143 2.4 0.00 0.00 58.2 96.8
8/23/19 - 2300 66.2 72 57.1 1.2 SE | 133 4.8 0.00 0.00 58.2 96.8
8/23/19 - 2200 70.4 65 58.0 1.1 WSW | 252 6.4 0.00 0.00 58.2 96.8
8/23/19 - 2100 73.0 61 58.6 3.6 WNW | 301 7.4 0.00 0.00 58.2 96.8
8/23/19 - 2000 77.3 54 59.2 4.7 NW | 318 9.8 0.00 0.00 58.2 96.8
8/23/19 - 1900 84.5 43 59.7 6.0 NW | 322 12.1 0.00 0.00 58.2 96.8
8/23/19 - 1800 89.5 36 58.8 6.4 NNW | 327 13.8 0.00 0.00 58.2 96.8
8/23/19 - 1700 94.3 28 56.4 5.3 WNW | 300 12.1 0.00 0.00 58.2 96.8
8/23/19 - 1600 95.3 26 55.4 4.8 NNW | 336 11.8 0.00 0.00 58.2 96.8
8/23/19 - 1500 95.5 27 56.1 4.7 SSW | 207 11.5 0.00 0.00 58.2 96.6
8/23/19 - 1400 93.9 29 56.9 4.2 S | 181 9.5 0.00 0.00 58.2 94.7
8/23/19 - 1300 92.1 29 55.5 4.0 S | 186 8.1 0.00 0.00 58.2 93.6
8/23/19 - 1200 90.3 30 54.5 3.3 S | 188 8.8 0.00 0.00 58.2 91.6
8/23/19 - 1100 86.3 38 57.8 1.4 SE | 141 5.1 0.00 0.00 58.2 88.6
8/23/19 - 1000 80.9 48 59.6 1.2 SSE | 164 6.1 0.00 0.00 58.2 83.5
8/23/19 - 0900 74.2 62 60.5 0.4 S | 176 0.4 0.00 0.00 58.2 77.2
8/23/19 - 0800 62.5 82 56.9 0.4 ENE | 66 0.4 0.00 0.00 58.2 69.2
8/23/19 - 0700 59.0 85 54.4 0.5 E | 91 2.7 0.00 0.00 58.2 68.3
8/23/19 - 0600 59.5 82 54.2 0.4 NNE | 29 0.4 0.00 0.00 59.0 68.3
8/23/19 - 0500 60.0 80 53.8 0.4 NE | 39 0.4 0.00 0.00 59.4 68.3
8/23/19 - 0400 61.6 78 54.6 0.4 NE | 43 1.4 0.00 0.00 60.7 68.3
8/23/19 - 0300 63.9 75 55.7 0.7 NE | 40 3.1 0.00 0.00 62.6 68.3
8/23/19 - 0200 66.2 70 56.1 0.5 E | 90 2.7 0.00 0.00 64.5 68.3
8/23/19 - 0100 70.5 64 57.6 0.6 NNW | 335 3.8 0.00 0.00 65.2 96.1
8/23/19 - 0000 72.9 59 57.6 0.9 NNW | 347 5.4 0.00 0.00 65.2 96.1
8/22/19 - 2300 75.7 53 57.2 2.1 NNW | 338 6.1 0.00 0.00 65.2 96.1
8/22/19 - 2200 76.3 52 57.6 1.4 N | 349 5.1 0.00 0.00 65.2 96.1
8/22/19 - 2100 79.6 51 60.0 0.8 NNE | 27 4.1 0.00 0.00 65.2 96.1
8/22/19 - 2000 87.2 41 60.3 0.8 NW | 304 4.1 0.00 0.00 65.2 96.1
8/22/19 - 1900 90.6 37 61.0 2.9 WSW | 253 7.1 0.00 0.00 65.2 96.1
8/22/19 - 1800 92.2 37 62.2 5.2 WSW | 241 11.1 0.00 0.00 65.2 96.1
8/22/19 - 1700 93.9 36 62.8 5.9 WSW | 243 12.8 0.00 0.00 65.2 96.1
8/22/19 - 1600 95.1 34 62.4 4.3 SSW | 212 10.5 0.00 0.00 65.2 96.1
8/22/19 - 1500 93.8 38 64.6 5.1 SSE | 158 10.8 0.00 0.00 65.2 95.1
8/22/19 - 1400 91.9 41 65.1 5.2 SE | 145 12.8 0.00 0.00 65.2 93.1
8/22/19 - 1300 89.6 44 64.9 4.7 SSE | 160 10.8 0.00 0.00 65.2 91.4
8/22/19 - 1200 86.1 50 65.4 4.0 S | 171 10.1 0.00 0.00 65.2 88.3
8/22/19 - 1100 83.3 56 65.9 2.5 S | 185 8.1 0.00 0.00 65.2 85.1
8/22/19 - 1000 79.7 61 65.1 2.0 SSE | 150 6.8 0.00 0.00 65.2 81.8
8/22/19 - 0900 74.8 70 64.5 0.7 SE | 138 3.4 0.00 0.00 65.2 77.4
8/22/19 - 0800 67.9 83 62.5 0.4 E | 98 0.4 0.00 0.00 65.2 76.0
8/22/19 - 0700 65.5 82 60.1 0.4 ENE | 76 1.7 0.00 0.00 65.2 76.0
8/22/19 - 0600 66.4 79 59.9 0.4 NNE | 24 0.4 0.00 0.00 65.2 76.0
8/22/19 - 0500 68.2 77 60.6 0.4 ESE | 119 1.7 0.00 0.00 67.2 76.0
8/22/19 - 0400 70.9 72 61.6 0.4 E | 94 0.4 0.00 0.00 68.9 76.0
8/22/19 - 0300 75.1 65 62.6 1.7 NW | 310 6.8 0.00 0.00 71.3 76.0
8/22/19 - 0200 72.6 68 61.7 0.4 WNW | 289 3.1 0.00 0.00 71.3 75.1
8/22/19 - 0100 77.0 61 62.7 4.0 NW | 316 12.1 0.00 0.00 54.7 94.2
8/22/19 - 0000 76.4 61 62.0 2.0 NW | 308 7.8 0.00 0.00 54.7 94.2
8/21/19 - 2300 76.6 59 61.1 1.3 N | 8 6.4 0.00 0.00 54.7 94.2
8/21/19 - 2200 78.7 56 61.5 2.2 NNE | 22 8.1 0.00 0.00 54.7 94.2
8/21/19 - 2100 81.7 50 61.0 1.6 N | 352 7.8 0.00 0.00 54.7 94.2
8/21/19 - 2000 84.9 44 60.7 1.5 E | 98 4.4 0.00 0.00 54.7 94.2
8/21/19 - 1900 91.3 32 57.7 2.1 S | 171 7.4 0.00 0.00 54.7 94.2
8/21/19 - 1800 91.6 30 55.6 4.1 SSW | 201 12.8 0.00 0.00 54.7 94.2
8/21/19 - 1700 92.3 30 56.1 4.9 WSW | 246 11.1 0.00 0.00 54.7 94.2
8/21/19 - 1600 93.0 30 57.2 5.4 W | 260 12.5 0.00 0.00 54.7 94.2
8/21/19 - 1500 92.7 30 56.4 6.1 WNW | 290 13.2 0.00 0.00 54.7 93.8
8/21/19 - 1400 91.0 33 58.1 4.3 SSW | 204 11.5 0.00 0.00 54.7 93.1
8/21/19 - 1300 87.1 39 58.8 5.1 SE | 140 10.8 0.00 0.00 54.7 89.4
8/21/19 - 1200 82.9 45 59.2 4.4 SE | 127 9.8 0.00 0.00 54.7 84.4
8/21/19 - 1100 79.6 49 59.0 3.8 SE | 143 8.4 0.00 0.00 54.7 81.1
8/21/19 - 1000 75.8 56 58.8 1.8 SSE | 168 7.8 0.00 0.00 54.7 78.4
8/21/19 - 0900 69.1 67 57.6 0.6 S | 185 3.1 0.00 0.00 54.7 73.5
8/21/19 - 0800 58.7 84 53.9 0.4 ESE | 121 1.7 0.00 0.00 54.7 63.8
8/21/19 - 0700 55.1 86 50.9 0.4 E | 82 0.4 0.00 0.00 54.7 58.2
8/21/19 - 0600 55.3 85 50.8 0.4 NW | 318 2.1 0.00 0.00 54.9 58.2
8/21/19 - 0500 55.9 84 51.4 0.4 N | 1 1.7 0.00 0.00 55.6 58.2
8/21/19 - 0400 56.4 83 51.2 0.4 NE | 45 1.7 0.00 0.00 56.1 58.2
8/21/19 - 0300 56.8 81 50.9 0.4 NE | 38 2.1 0.00 0.00 56.4 58.2
8/21/19 - 0200 57.7 79 51.2 0.4 NE | 44 1.7 0.00 0.00 57.0 58.2
8/21/19 - 0100 58.8 78 52.0 0.4 ENE | 77 2.1 0.00 0.00 48.8 88.1
8/21/19 - 0000 60.2 75 52.4 0.4 N | 353 1.7 0.00 0.00 48.8 88.1
8/20/19 - 2300 62.6 73 53.7 0.7 NNE | 24 4.1 0.00 0.00 48.8 88.1
8/20/19 - 2200 65.0 67 53.7 0.6 E | 94 3.1 0.00 0.00 48.8 88.1
8/20/19 - 2100 69.8 60 55.1 1.1 NE | 34 5.1 0.00 0.00 48.8 88.1
8/20/19 - 2000 76.0 51 56.3 1.5 WSW | 254 5.8 0.00 0.00 48.8 88.1
8/20/19 - 1900 79.7 44 56.0 3.2 WNW | 282 9.5 0.00 0.00 48.8 88.1
8/20/19 - 1800 83.9 39 56.2 3.6 WNW | 282 9.5 0.00 0.00 48.8 88.1
8/20/19 - 1700 85.2 38 56.5 3.9 WNW | 300 9.5 0.00 0.00 48.8 88.1
8/20/19 - 1600 85.8 39 58.3 5.4 NW | 310 11.8 0.00 0.00 48.8 88.1
8/20/19 - 1500 85.3 42 59.7 4.0 SSW | 196 15.8 0.00 0.00 48.8 88.1
8/20/19 - 1400 82.2 46 59.4 3.4 ESE | 115 12.5 0.00 0.00 48.8 84.2
8/20/19 - 1300 78.4 52 59.3 3.6 S | 177 8.8 0.00 0.00 48.8 80.7
8/20/19 - 1200 75.0 56 58.5 3.5 ESE | 110 8.1 0.00 0.00 48.8 77.0
8/20/19 - 1100 72.3 61 58.0 3.3 SE | 146 7.8 0.00 0.00 48.8 74.6
8/20/19 - 1000 68.0 68 57.0 2.1 S | 170 6.1 0.00 0.00 48.8 70.4
8/20/19 - 0900 63.3 76 55.7 1.1 SE | 143 4.1 0.00 0.00 48.8 65.6
8/20/19 - 0800 53.9 89 50.9 0.4 E | 88 0.4 0.00 0.00 48.8 60.4
8/20/19 - 0700 49.7 90 46.8 0.5 E | 93 2.1 0.00 0.00 48.8 55.7
8/20/19 - 0600 50.1 90 47.2 0.4 NE | 38 1.4 0.00 0.00 49.5 55.7
8/20/19 - 0500 51.2 88 47.9 0.4 NNE | 30 1.7 0.00 0.00 50.8 55.7
8/20/19 - 0400 52.2 88 48.7 0.6 ENE | 78 3.8 0.00 0.00 51.4 55.7
8/20/19 - 0300 53.0 86 49.1 0.4 N | 350 2.1 0.00 0.00 51.8 55.7
8/20/19 - 0200 54.4 85 50.1 0.7 ESE | 104 3.4 0.00 0.00 53.5 55.7
8/20/19 - 0100 55.6 83 50.7 0.4 WNW | 288 2.1 0.00 0.00 49.3 84.4
8/20/19 - 0000 57.4 80 51.2 0.5 ENE | 78 2.1 0.00 0.00 49.3 84.4
8/19/19 - 2300 59.9 78 53.0 0.4 N | 11 1.7 0.00 0.00 49.3 84.4
8/19/19 - 2200 63.0 75 54.8 0.6 NE | 51 2.7 0.00 0.00 49.3 84.4
8/19/19 - 2100 67.2 68 56.2 1.0 NNE | 15 4.8 0.00 0.00 49.3 84.4
8/19/19 - 2000 72.1 60 57.2 4.1 NNW | 335 10.1 0.00 0.00 49.3 84.4
8/19/19 - 1900 78.3 50 58.2 6.5 NNW | 340 12.5 0.00 0.00 49.3 84.4
8/19/19 - 1800 82.6 44 58.3 6.3 NNW | 346 12.1 0.00 0.00 49.3 84.4
8/19/19 - 1700 83.5 42 58.3 5.8 NNW | 332 12.8 0.00 0.00 49.3 84.4
8/19/19 - 1600 83.4 44 59.3 4.8 WSW | 254 13.5 0.00 0.00 49.3 84.4
8/19/19 - 1500 81.3 47 59.3 4.2 S | 177 12.8 0.00 0.00 49.3 82.9
8/19/19 - 1400 78.0 52 58.8 4.0 S | 186 9.1 0.00 0.00 49.3 79.9
8/19/19 - 1300 75.2 55 58.1 4.3 S | 172 9.8 0.00 0.00 49.3 76.4
8/19/19 - 1200 72.1 59 57.2 3.0 SSE | 151 9.1 0.00 0.00 49.3 73.5
8/19/19 - 1100 68.5 65 56.3 3.0 S | 174 7.8 0.00 0.00 49.3 70.5
8/19/19 - 1000 65.4 72 56.0 2.1 S | 169 6.4 0.00 0.00 49.3 68.0
8/19/19 - 0900 60.2 80 54.1 1.1 ESE | 120 3.4 0.00 0.00 49.3 62.9
8/19/19 - 0800 52.9 88 49.3 0.4 N | 5 0.4 0.00 0.00 49.3 58.2
8/19/19 - 0700 49.9 88 46.5 0.4 N | 7 0.4 0.00 0.00 49.3 54.8
8/19/19 - 0600 50.5 88 47.2 0.4 ESE | 111 0.4 0.00 0.00 49.3 54.8
8/19/19 - 0500 51.1 87 47.5 0.5 NW | 318 3.1 0.00 0.00 50.5 54.8
8/19/19 - 0400 52.4 88 49.0 0.4 N | 3 1.1 0.00 0.00 51.5 54.8
8/19/19 - 0300 53.1 86 49.1 0.5 NW | 320 2.4 0.00 0.00 52.2 54.8
8/19/19 - 0200 54.2 86 50.0 0.5 ENE | 72 2.4 0.00 0.00 53.5 54.8
8/19/19 - 0100 55.6 84 50.8 0.5 NNE | 17 2.4 0.00 0.00 48.3 82.8
8/19/19 - 0000 57.7 81 52.0 0.5 NNE | 13 3.1 0.00 0.00 48.3 82.8
8/18/19 - 2300 59.7 79 53.2 0.9 ENE | 72 3.1 0.00 0.00 48.3 82.8
8/18/19 - 2200 63.0 71 53.5 1.1 NNE | 18 4.4 0.00 0.00 48.3 82.8
8/18/19 - 2100 66.4 65 54.1 2.0 ESE | 122 5.1 0.00 0.00 48.3 82.8
8/18/19 - 2000 70.7 57 54.6 2.5 E | 82 7.1 0.00 0.00 48.3 82.8
8/18/19 - 1900 77.0 48 56.1 2.9 W | 271 10.1 0.00 0.00 48.3 82.8
8/18/19 - 1800 80.2 44 56.3 3.9 WNW | 297 10.5 0.00 0.00 48.3 82.8
8/18/19 - 1700 81.7 42 56.2 4.6 WSW | 256 13.2 0.00 0.00 48.3 82.8
8/18/19 - 1600 80.6 44 56.7 6.6 SSW | 209 14.2 0.00 0.00 48.3 81.3
8/18/19 - 1500 80.2 41 54.6 7.0 WSW | 244 12.8 0.00 0.00 48.3 80.9
8/18/19 - 1400 79.2 44 55.2 6.9 WSW | 238 12.8 0.00 0.00 48.3 80.0
8/18/19 - 1300 77.9 48 56.8 5.8 SSW | 195 11.1 0.00 0.00 48.3 79.2
Max 95.5 90 65.9 7.0 - 15.8 0.00 0.00 71.3 96.8
Avg 72.9 59 55.8 2.3 - 6.2 0.00 - - -
Min 49.7 26 46.5 0.4 - 0.4 0.00 0.00 48.3 54.8
Total - - - - - - 0.00 - - -
Tip: Bookmark this page for easy future reference